sensor_id;sensor_type;location;lat;lon;timestamp;pressure;altitude;pressure_sealevel;temperature;humidity
58622;BME280;44389;51.578;5.456;2023-02-02T00:00:56;102042.13;;;6.52;100.00
58622;BME280;44389;51.578;5.456;2023-02-02T00:03:21;102044.69;;;6.52;100.00
58622;BME280;44389;51.578;5.456;2023-02-02T00:05:48;102046.38;;;6.51;100.00
58622;BME280;44389;51.578;5.456;2023-02-02T00:08:15;102052.28;;;6.50;100.00
58622;BME280;44389;51.578;5.456;2023-02-02T00:10:41;102052.38;;;6.52;100.00
58622;BME280;44389;51.578;5.456;2023-02-02T00:13:06;102044.91;;;6.55;100.00
58622;BME280;44389;51.578;5.456;2023-02-02T00:15:32;102039.69;;;6.53;100.00
58622;BME280;44389;51.578;5.456;2023-02-02T00:17:57;102044.00;;;6.54;100.00
58622;BME280;44389;51.578;5.456;2023-02-02T00:20:23;102040.75;;;6.57;100.00
58622;BME280;44389;51.578;5.456;2023-02-02T00:22:48;102043.31;;;6.57;100.00
58622;BME280;44389;51.578;5.456;2023-02-02T00:25:13;102042.63;;;6.59;100.00
58622;BME280;44389;51.578;5.456;2023-02-02T00:27:39;102047.88;;;6.61;100.00
58622;BME280;44389;51.578;5.456;2023-02-02T00:30:05;102049.75;;;6.64;100.00
58622;BME280;44389;51.578;5.456;2023-02-02T00:32:31;102053.19;;;6.64;100.00
58622;BME280;44389;51.578;5.456;2023-02-02T00:34:56;102057.72;;;6.68;100.00
58622;BME280;44389;51.578;5.456;2023-02-02T00:37:21;102056.06;;;6.69;100.00
58622;BME280;44389;51.578;5.456;2023-02-02T00:39:46;102057.03;;;6.71;100.00
58622;BME280;44389;51.578;5.456;2023-02-02T00:42:12;102059.50;;;6.69;100.00
58622;BME280;44389;51.578;5.456;2023-02-02T00:44:37;102059.50;;;6.69;100.00
58622;BME280;44389;51.578;5.456;2023-02-02T00:47:21;102065.31;;;6.67;100.00
58622;BME280;44389;51.578;5.456;2023-02-02T00:49:46;102058.41;;;6.66;100.00
58622;BME280;44389;51.578;5.456;2023-02-02T00:52:12;102053.50;;;6.69;100.00
58622;BME280;44389;51.578;5.456;2023-02-02T00:54:37;102059.31;;;6.66;100.00
58622;BME280;44389;51.578;5.456;2023-02-02T00:57:03;102059.19;;;6.65;100.00
58622;BME280;44389;51.578;5.456;2023-02-02T00:59:28;102060.28;;;6.68;100.00
58622;BME280;44389;51.578;5.456;2023-02-02T01:01:53;102060.19;;;6.67;100.00
58622;BME280;44389;51.578;5.456;2023-02-02T01:04:19;102060.19;;;6.67;100.00
58622;BME280;44389;51.578;5.456;2023-02-02T01:06:44;102062.75;;;6.67;100.00
58622;BME280;44389;51.578;5.456;2023-02-02T01:09:09;102056.06;;;6.69;100.00
58622;BME280;44389;51.578;5.456;2023-02-02T01:11:35;102057.81;;;6.70;100.00
58622;BME280;44389;51.578;5.456;2023-02-02T01:14:00;102063.75;;;6.69;100.00
58622;BME280;44389;51.578;5.456;2023-02-02T01:16:27;102065.50;;;6.70;100.00
58622;BME280;44389;51.578;5.456;2023-02-02T01:18:52;102059.59;;;6.71;100.00
58622;BME280;44389;51.578;5.456;2023-02-02T01:21:18;102061.38;;;6.72;100.00
58622;BME280;44389;51.578;5.456;2023-02-02T01:23:44;102050.13;;;6.70;100.00
58622;BME280;44389;51.578;5.456;2023-02-02T01:26:10;102057.81;;;6.70;100.00
58622;BME280;44389;51.578;5.456;2023-02-02T01:28:36;102053.38;;;6.67;100.00
58622;BME280;44389;51.578;5.456;2023-02-02T01:31:19;102056.84;;;6.68;100.00
58622;BME280;44389;51.578;5.456;2023-02-02T01:33:46;102061.97;;;6.68;100.00
58622;BME280;44389;51.578;5.456;2023-02-02T01:36:15;102060.19;;;6.67;100.00
58622;BME280;44389;51.578;5.456;2023-02-02T01:38:40;102060.19;;;6.67;100.00
58622;BME280;44389;51.578;5.456;2023-02-02T01:41:07;102049.16;;;6.68;100.00
58622;BME280;44389;51.578;5.456;2023-02-02T01:46:21;102063.53;;;6.66;100.00
58622;BME280;44389;51.578;5.456;2023-02-02T01:48:51;102053.28;;;6.66;100.00
58622;BME280;44389;51.578;5.456;2023-02-02T01:51:21;102061.75;;;6.65;100.00
58622;BME280;44389;51.578;5.456;2023-02-02T01:53:50;102068.66;;;6.66;100.00
58622;BME280;44389;51.578;5.456;2023-02-02T01:56:26;102051.72;;;6.68;100.00
58622;BME280;44389;51.578;5.456;2023-02-02T01:58:53;102053.50;;;6.69;100.00
58622;BME280;44389;51.578;5.456;2023-02-02T02:01:18;102058.63;;;6.69;100.00
58622;BME280;44389;51.578;5.456;2023-02-02T02:03:44;102063.75;;;6.69;100.00
58622;BME280;44389;51.578;5.456;2023-02-02T02:06:12;102066.19;;;6.67;100.00
58622;BME280;44389;51.578;5.456;2023-02-02T02:08:46;102062.84;;;6.68;100.00
58622;BME280;44389;51.578;5.456;2023-02-02T02:11:13;102059.31;;;6.66;100.00
58622;BME280;44389;51.578;5.456;2023-02-02T02:13:39;102061.28;;;6.70;100.00
58622;BME280;44389;51.578;5.456;2023-02-02T02:16:51;102052.50;;;6.67;100.00
58622;BME280;44389;51.578;5.456;2023-02-02T02:20:03;102047.38;;;6.67;100.00
58622;BME280;44389;51.578;5.456;2023-02-02T02:26:04;102066.69;;;6.62;100.00
58622;BME280;44389;51.578;5.456;2023-02-02T02:32:03;102059.78;;;6.61;100.00
58622;BME280;44389;51.578;5.456;2023-02-02T02:34:46;102059.78;;;6.61;100.00
58622;BME280;44389;51.578;5.456;2023-02-02T02:40:07;102061.25;;;6.57;100.00
58622;BME280;44389;51.578;5.456;2023-02-02T02:42:38;102061.94;;;6.54;100.00
58622;BME280;44389;51.578;5.456;2023-02-02T02:45:05;102073.00;;;6.53;100.00
58622;BME280;44389;51.578;5.456;2023-02-02T02:47:32;102064.50;;;6.54;100.00
58622;BME280;44389;51.578;5.456;2023-02-02T02:49:58;102074.56;;;6.51;100.00
58622;BME280;44389;51.578;5.456;2023-02-02T02:52:23;102060.88;;;6.51;100.00
58622;BME280;44389;51.578;5.456;2023-02-02T02:54:52;102082.91;;;6.49;100.00
58622;BME280;44389;51.578;5.456;2023-02-02T03:00:11;102075.03;;;6.46;100.00
58622;BME280;44389;51.578;5.456;2023-02-02T03:05:42;102064.22;;;6.50;100.00
58622;BME280;44389;51.578;5.456;2023-02-02T03:08:21;102056.44;;;6.48;100.00
58622;BME280;44389;51.578;5.456;2023-02-02T03:10:48;102050.50;;;6.49;100.00
58622;BME280;44389;51.578;5.456;2023-02-02T03:13:15;102058.78;;;6.45;100.00
58622;BME280;44389;51.578;5.456;2023-02-02T03:15:45;102060.38;;;6.43;100.00
58622;BME280;44389;51.578;5.456;2023-02-02T03:18:12;102057.69;;;6.41;100.00
58622;BME280;44389;51.578;5.456;2023-02-02T03:20:38;102067.13;;;6.42;100.00
58622;BME280;44389;51.578;5.456;2023-02-02T03:23:03;102045.00;;;6.43;100.00
58622;BME280;44389;51.578;5.456;2023-02-02T03:25:29;102045.69;;;6.40;100.00
58622;BME280;44389;51.578;5.456;2023-02-02T03:27:54;102044.78;;;6.40;100.00
58622;BME280;44389;51.578;5.456;2023-02-02T03:30:21;102045.00;;;6.43;100.00
58622;BME280;44389;51.578;5.456;2023-02-02T03:32:46;102043.31;;;6.43;100.00
58622;BME280;44389;51.578;5.456;2023-02-02T03:35:12;102050.13;;;6.43;100.00
58622;BME280;44389;51.578;5.456;2023-02-02T03:37:37;102046.88;;;6.46;100.00
58622;BME280;44389;51.578;5.456;2023-02-02T03:40:04;102048.53;;;6.45;100.00
58622;BME280;44389;51.578;5.456;2023-02-02T03:42:30;102058.09;;;6.48;100.00
58622;BME280;44389;51.578;5.456;2023-02-02T03:44:55;102062.53;;;6.50;100.00
58622;BME280;44389;51.578;5.456;2023-02-02T03:47:20;102074.38;;;6.48;100.00
58622;BME280;44389;51.578;5.456;2023-02-02T03:49:46;102066.69;;;6.48;100.00
58622;BME280;44389;51.578;5.456;2023-02-02T03:52:11;102084.59;;;6.48;100.00
58622;BME280;44389;51.578;5.456;2023-02-02T03:54:36;102082.13;;;6.50;100.00
58622;BME280;44389;51.578;5.456;2023-02-02T03:57:02;102095.81;;;6.50;100.00
58622;BME280;44389;51.578;5.456;2023-02-02T03:59:27;102091.47;;;6.49;100.00
58622;BME280;44389;51.578;5.456;2023-02-02T04:01:52;102090.59;;;6.49;100.00
58622;BME280;44389;51.578;5.456;2023-02-02T04:04:17;102080.34;;;6.49;100.00
58622;BME280;44389;51.578;5.456;2023-02-02T04:06:43;102079.66;;;6.51;100.00
58622;BME280;44389;51.578;5.456;2023-02-02T04:09:08;102067.88;;;6.53;100.00
58622;BME280;44389;51.578;5.456;2023-02-02T04:11:33;102066.97;;;6.53;100.00
58622;BME280;44389;51.578;5.456;2023-02-02T04:13:59;102084.00;;;6.52;100.00
58622;BME280;44389;51.578;5.456;2023-02-02T04:16:24;102085.56;;;6.50;100.00
58622;BME280;44389;51.578;5.456;2023-02-02T04:18:49;102091.69;;;6.52;100.00
58622;BME280;44389;51.578;5.456;2023-02-02T04:21:15;102086.34;;;6.49;100.00
58622;BME280;44389;51.578;5.456;2023-02-02T04:23:40;102092.28;;;6.48;100.00
58622;BME280;44389;51.578;5.456;2023-02-02T04:26:06;102092.38;;;6.50;100.00
58622;BME280;44389;51.578;5.456;2023-02-02T04:28:31;102101.72;;;6.49;100.00
58622;BME280;44389;51.578;5.456;2023-02-02T04:30:57;102092.56;;;6.53;100.00
58622;BME280;44389;51.578;5.456;2023-02-02T04:33:23;102095.81;;;6.50;100.00
58622;BME280;44389;51.578;5.456;2023-02-02T04:35:49;102107.66;;;6.48;100.00
58622;BME280;44389;51.578;5.456;2023-02-02T04:38:14;102099.28;;;6.51;100.00
58622;BME280;44389;51.578;5.456;2023-02-02T04:40:44;102097.41;;;6.48;100.00
58622;BME280;44389;51.578;5.456;2023-02-02T04:43:10;102099.97;;;6.48;100.00
58622;BME280;44389;51.578;5.456;2023-02-02T04:45:36;102085.56;;;6.50;100.00
58622;BME280;44389;51.578;5.456;2023-02-02T04:48:02;102091.69;;;6.52;100.00
58622;BME280;44389;51.578;5.456;2023-02-02T04:50:28;102091.00;;;6.55;100.00
58622;BME280;44389;51.578;5.456;2023-02-02T04:52:53;102085.78;;;6.53;100.00
58622;BME280;44389;51.578;5.456;2023-02-02T04:55:19;102076.34;;;6.52;100.00
58622;BME280;44389;51.578;5.456;2023-02-02T04:57:44;102084.69;;;6.50;100.00
58622;BME280;44389;51.578;5.456;2023-02-02T05:00:10;102079.78;;;6.53;100.00
58622;BME280;44389;51.578;5.456;2023-02-02T05:02:39;102084.78;;;6.51;100.00
58622;BME280;44389;51.578;5.456;2023-02-02T05:05:07;102091.78;;;6.54;100.00
58622;BME280;44389;51.578;5.456;2023-02-02T05:07:33;102097.59;;;6.51;100.00
58622;BME280;44389;51.578;5.456;2023-02-02T05:09:58;102090.91;;;6.53;100.00
58622;BME280;44389;51.578;5.456;2023-02-02T05:12:23;102096.91;;;6.54;100.00
58622;BME280;44389;51.578;5.456;2023-02-02T05:14:49;102095.22;;;6.54;100.00
58622;BME280;44389;51.578;5.456;2023-02-02T05:17:14;102099.66;;;6.57;100.00
58622;BME280;44389;51.578;5.456;2023-02-02T05:19:40;102115.03;;;6.57;100.00
58622;BME280;44389;51.578;5.456;2023-02-02T05:22:06;102110.81;;;6.57;100.00
58622;BME280;44389;51.578;5.456;2023-02-02T05:24:31;102107.34;;;6.57;100.00
58622;BME280;44389;51.578;5.456;2023-02-02T05:26:56;102108.25;;;6.57;100.00
58622;BME280;44389;51.578;5.456;2023-02-02T05:29:25;102100.66;;;6.59;100.00
58622;BME280;44389;51.578;5.456;2023-02-02T05:31:50;102106.66;;;6.59;100.00
58622;BME280;44389;51.578;5.456;2023-02-02T05:34:15;102126.38;;;6.61;100.00
58622;BME280;44389;51.578;5.456;2023-02-02T05:36:41;102105.00;;;6.60;100.00
58622;BME280;44389;51.578;5.456;2023-02-02T05:39:06;102109.22;;;6.59;100.00
58622;BME280;44389;51.578;5.456;2023-02-02T05:41:33;102110.22;;;6.62;100.00
58622;BME280;44389;51.578;5.456;2023-02-02T05:43:58;102115.34;;;6.62;100.00
58622;BME280;44389;51.578;5.456;2023-02-02T05:46:24;102111.22;;;6.64;100.00
58622;BME280;44389;51.578;5.456;2023-02-02T05:48:49;102116.53;;;6.67;100.00
58622;BME280;44389;51.578;5.456;2023-02-02T05:51:18;102114.75;;;6.66;100.00
58622;BME280;44389;51.578;5.456;2023-02-02T05:53:44;102109.63;;;6.66;100.00
58622;BME280;44389;51.578;5.456;2023-02-02T05:56:11;102116.44;;;6.65;100.00
58622;BME280;44389;51.578;5.456;2023-02-02T05:58:36;102118.22;;;6.66;100.00
58622;BME280;44389;51.578;5.456;2023-02-02T06:01:01;102119.00;;;6.65;100.00
58622;BME280;44389;51.578;5.456;2023-02-02T06:03:27;102106.19;;;6.65;100.00
58622;BME280;44389;51.578;5.456;2023-02-02T06:05:52;102112.19;;;6.66;100.00
58622;BME280;44389;51.578;5.456;2023-02-02T06:08:18;102112.09;;;6.64;100.00
58622;BME280;44389;51.578;5.456;2023-02-02T06:10:43;102109.44;;;6.63;100.00
58622;BME280;44389;51.578;5.456;2023-02-02T06:13:08;102101.84;;;6.64;100.00
58622;BME280;44389;51.578;5.456;2023-02-02T06:15:35;102116.34;;;6.64;100.00
58622;BME280;44389;51.578;5.456;2023-02-02T06:18:00;102106.78;;;6.61;100.00
58622;BME280;44389;51.578;5.456;2023-02-02T06:20:27;102118.50;;;6.57;100.00
58622;BME280;44389;51.578;5.456;2023-02-02T06:22:52;102125.28;;;6.57;100.00
58622;BME280;44389;51.578;5.456;2023-02-02T06:25:18;102131.09;;;6.54;100.00
58622;BME280;44389;51.578;5.456;2023-02-02T06:27:43;102124.41;;;6.56;100.00
58622;BME280;44389;51.578;5.456;2023-02-02T06:30:11;102139.69;;;6.55;100.00
58622;BME280;44389;51.578;5.456;2023-02-02T06:32:36;102137.22;;;6.56;100.00
58622;BME280;44389;51.578;5.456;2023-02-02T06:35:03;102135.34;;;6.54;100.00
58622;BME280;44389;51.578;5.456;2023-02-02T06:37:28;102127.66;;;6.54;100.00
58622;BME280;44389;51.578;5.456;2023-02-02T06:39:54;102125.00;;;6.52;100.00
58622;BME280;44389;51.578;5.456;2023-02-02T06:42:19;102122.22;;;6.49;100.00
58622;BME280;44389;51.578;5.456;2023-02-02T06:44:44;102130.72;;;6.48;100.00
58622;BME280;44389;51.578;5.456;2023-02-02T06:47:10;102138.16;;;6.45;100.00
58622;BME280;44389;51.578;5.456;2023-02-02T06:49:35;102137.19;;;6.43;100.00
58622;BME280;44389;51.578;5.456;2023-02-02T06:52:00;102144.97;;;6.45;100.00
58622;BME280;44389;51.578;5.456;2023-02-02T06:54:26;102139.06;;;6.46;100.00
58622;BME280;44389;51.578;5.456;2023-02-02T06:56:51;102156.69;;;6.41;100.00
58622;BME280;44389;51.578;5.456;2023-02-02T06:59:16;102150.78;;;6.42;100.00
58622;BME280;44389;51.578;5.456;2023-02-02T07:01:42;102146.44;;;6.41;100.00
58622;BME280;44389;51.578;5.456;2023-02-02T07:04:07;102151.66;;;6.42;100.00
58622;BME280;44389;51.578;5.456;2023-02-02T07:06:32;102150.88;;;6.43;100.00
58622;BME280;44389;51.578;5.456;2023-02-02T07:08:59;102150.78;;;6.42;100.00
58622;BME280;44389;51.578;5.456;2023-02-02T07:11:24;102162.56;;;6.40;100.00
58622;BME280;44389;51.578;5.456;2023-02-02T07:13:49;102163.34;;;6.39;100.00
58622;BME280;44389;51.578;5.456;2023-02-02T07:16:16;102159.91;;;6.38;100.00
58622;BME280;44389;51.578;5.456;2023-02-02T07:18:42;102155.56;;;6.37;100.00
58622;BME280;44389;51.578;5.456;2023-02-02T07:21:15;102153.69;;;6.35;100.00
58622;BME280;44389;51.578;5.456;2023-02-02T07:23:41;102153.69;;;6.35;100.00
58622;BME280;44389;51.578;5.456;2023-02-02T07:26:08;102167.19;;;6.32;100.00
58622;BME280;44389;51.578;5.456;2023-02-02T07:28:34;102169.28;;;6.38;100.00
58622;BME280;44389;51.578;5.456;2023-02-02T07:31:00;102160.41;;;6.33;100.00
58622;BME280;44389;51.578;5.456;2023-02-02T07:33:35;102159.50;;;6.32;100.00
58622;BME280;44389;51.578;5.456;2023-02-02T07:36:04;102159.41;;;6.31;100.00
58622;BME280;44389;51.578;5.456;2023-02-02T07:38:30;102160.94;;;6.29;100.00
58622;BME280;44389;51.578;5.456;2023-02-02T07:40:55;102161.75;;;6.28;100.00
58622;BME280;44389;51.578;5.456;2023-02-02T07:43:20;102173.66;;;6.27;100.00
58622;BME280;44389;51.578;5.456;2023-02-02T07:45:45;102176.88;;;6.24;100.00
58622;BME280;44389;51.578;5.456;2023-02-02T07:48:11;102175.91;;;6.22;100.00
58622;BME280;44389;51.578;5.456;2023-02-02T07:50:36;102181.81;;;6.21;100.00
58622;BME280;44389;51.578;5.456;2023-02-02T07:53:01;102180.91;;;6.21;100.00
58622;BME280;44389;51.578;5.456;2023-02-02T07:55:26;102186.16;;;6.22;100.00
58622;BME280;44389;51.578;5.456;2023-02-02T07:57:52;102183.59;;;6.22;100.00
58622;BME280;44389;51.578;5.456;2023-02-02T08:00:19;102184.47;;;6.23;100.00
58622;BME280;44389;51.578;5.456;2023-02-02T08:02:48;102192.25;;;6.24;100.00
58622;BME280;44389;51.578;5.456;2023-02-02T08:05:13;102187.13;;;6.24;100.00
58622;BME280;44389;51.578;5.456;2023-02-02T08:07:38;102174.56;;;6.28;100.00
58622;BME280;44389;51.578;5.456;2023-02-02T08:10:04;102185.00;;;6.31;100.00
58622;BME280;44389;51.578;5.456;2023-02-02T08:12:29;102195.44;;;6.34;100.00
58622;BME280;44389;51.578;5.456;2023-02-02T08:14:54;102208.47;;;6.37;100.00
58622;BME280;44389;51.578;5.456;2023-02-02T08:17:20;102194.88;;;6.38;100.00
58622;BME280;44389;51.578;5.456;2023-02-02T08:19:47;102206.22;;;6.41;100.00
58622;BME280;44389;51.578;5.456;2023-02-02T08:22:12;102199.53;;;6.43;100.00
58622;BME280;44389;51.578;5.456;2023-02-02T08:24:37;102212.44;;;6.45;100.00
58622;BME280;44389;51.578;5.456;2023-02-02T08:27:06;102215.22;;;6.48;100.00
58622;BME280;44389;51.578;5.456;2023-02-02T08:29:32;102212.66;;;6.48;100.00
58622;BME280;44389;51.578;5.456;2023-02-02T08:31:58;102209.28;;;6.49;100.00
58622;BME280;44389;51.578;5.456;2023-02-02T08:34:24;102211.19;;;6.52;100.00
58622;BME280;44389;51.578;5.456;2023-02-02T08:36:49;102209.72;;;6.55;100.00
58622;BME280;44389;51.578;5.456;2023-02-02T08:39:15;102207.16;;;6.55;100.00
58622;BME280;44389;51.578;5.456;2023-02-02T08:41:40;102215.06;;;6.58;100.00
58622;BME280;44389;51.578;5.456;2023-02-02T08:44:10;102227.97;;;6.60;100.00
58622;BME280;44389;51.578;5.456;2023-02-02T08:46:36;102235.75;;;6.62;100.00
58622;BME280;44389;51.578;5.456;2023-02-02T08:49:01;102231.50;;;6.62;100.00
58622;BME280;44389;51.578;5.456;2023-02-02T08:51:27;102245.22;;;6.63;100.00
58622;BME280;44389;51.578;5.456;2023-02-02T08:53:52;102247.88;;;6.64;100.00
58622;BME280;44389;51.578;5.456;2023-02-02T08:56:19;102254.88;;;6.67;100.00
58622;BME280;44389;51.578;5.456;2023-02-02T08:58:53;102259.34;;;6.69;100.00
58622;BME280;44389;51.578;5.456;2023-02-02T09:01:26;102268.91;;;6.72;100.00
58622;BME280;44389;51.578;5.456;2023-02-02T09:03:57;102272.47;;;6.74;100.00
58622;BME280;44389;51.578;5.456;2023-02-02T09:06:27;102283.78;;;6.78;100.00
58622;BME280;44389;51.578;5.456;2023-02-02T09:08:53;102283.13;;;6.80;100.00
58622;BME280;44389;51.578;5.456;2023-02-02T09:11:19;102284.81;;;6.80;100.00
58622;BME280;44389;51.578;5.456;2023-02-02T09:13:46;102299.50;;;6.82;100.00
58622;BME280;44389;51.578;5.456;2023-02-02T09:16:16;102297.94;;;6.84;100.00
58622;BME280;44389;51.578;5.456;2023-02-02T09:18:42;102300.69;;;6.87;100.00
58622;BME280;44389;51.578;5.456;2023-02-02T09:21:09;102287.19;;;6.90;100.00
58622;BME280;44389;51.578;5.456;2023-02-02T09:23:37;102299.34;;;6.92;100.00
58622;BME280;44389;51.578;5.456;2023-02-02T09:26:14;102297.19;;;6.99;100.00
58622;BME280;44389;51.578;5.456;2023-02-02T09:28:42;102295.59;;;7.01;100.00
58622;BME280;44389;51.578;5.456;2023-02-02T09:31:08;102305.50;;;7.08;100.00
58622;BME280;44389;51.578;5.456;2023-02-02T09:33:34;102303.81;;;7.08;100.00
58622;BME280;44389;51.578;5.456;2023-02-02T09:36:07;102318.94;;;7.17;100.00
58622;BME280;44389;51.578;5.456;2023-02-02T09:38:33;102313.22;;;7.21;100.00
58622;BME280;44389;51.578;5.456;2023-02-02T09:40:59;102327.47;;;7.30;100.00
58622;BME280;44389;51.578;5.456;2023-02-02T09:49:24;102323.81;;;7.39;100.00
58622;BME280;44389;51.578;5.456;2023-02-02T09:51:57;102321.56;;;7.44;99.73
58622;BME280;44389;51.578;5.456;2023-02-02T09:54:28;102334.56;;;7.47;100.00
58622;BME280;44389;51.578;5.456;2023-02-02T09:56:59;102342.50;;;7.50;99.66
58622;BME280;44389;51.578;5.456;2023-02-02T09:59:33;102342.69;;;7.53;100.00
58622;BME280;44389;51.578;5.456;2023-02-02T10:02:12;102353.28;;;7.58;100.00
58622;BME280;44389;51.578;5.456;2023-02-02T10:04:40;102351.06;;;7.51;99.43
58622;BME280;44389;51.578;5.456;2023-02-02T10:07:20;102354.50;;;7.51;100.00
58622;BME280;44389;51.578;5.456;2023-02-02T10:09:58;102348.69;;;7.54;100.00
58622;BME280;44389;51.578;5.456;2023-02-02T10:12:40;102347.81;;;7.53;100.00
58622;BME280;44389;51.578;5.456;2023-02-02T10:18:38;102345.34;;;7.55;100.00
58622;BME280;44389;51.578;5.456;2023-02-02T10:21:38;102346.44;;;7.58;100.00
58622;BME280;44389;51.578;5.456;2023-02-02T10:24:17;102345.16;;;7.52;100.00
58622;BME280;44389;51.578;5.456;2023-02-02T10:26:54;102341.59;;;7.50;100.00
58622;BME280;44389;51.578;5.456;2023-02-02T10:34:40;102340.91;;;7.52;100.00
58622;BME280;44389;51.578;5.456;2023-02-02T10:44:59;102354.16;;;7.72;99.48
58622;BME280;44389;51.578;5.456;2023-02-02T10:47:29;102352.03;;;7.91;99.85
58622;BME280;44389;51.578;5.456;2023-02-02T10:52:37;102357.31;;;8.08;98.31
58622;BME280;44389;51.578;5.456;2023-02-02T10:57:52;102366.81;;;8.09;97.50
58622;BME280;44389;51.578;5.456;2023-02-02T11:00:42;102377.28;;;7.99;96.44
58622;BME280;44389;51.578;5.456;2023-02-02T11:03:12;102374.31;;;7.93;96.42
58622;BME280;44389;51.578;5.456;2023-02-02T11:05:38;102376.00;;;7.92;96.95
58622;BME280;44389;51.578;5.456;2023-02-02T11:08:41;102371.56;;;7.89;96.76
58622;BME280;44389;51.578;5.456;2023-02-02T11:11:20;102369.84;;;7.90;96.86
58622;BME280;44389;51.578;5.456;2023-02-02T11:16:33;102377.38;;;7.87;96.68
58622;BME280;44389;51.578;5.456;2023-02-02T11:18:59;102378.75;;;7.82;95.96
58622;BME280;44389;51.578;5.456;2023-02-02T11:21:30;102371.06;;;7.82;97.52
58622;BME280;44389;51.578;5.456;2023-02-02T11:24:00;102367.38;;;7.78;97.08
58622;BME280;44389;51.578;5.456;2023-02-02T11:26:45;102362.25;;;7.78;97.19
58622;BME280;44389;51.578;5.456;2023-02-02T11:29:17;102356.34;;;7.79;96.94
58622;BME280;44389;51.578;5.456;2023-02-02T11:31:45;102357.34;;;7.81;96.81
58622;BME280;44389;51.578;5.456;2023-02-02T11:37:19;102361.69;;;7.96;96.58
58622;BME280;44389;51.578;5.456;2023-02-02T11:39:44;102364.63;;;7.88;95.78
58622;BME280;44389;51.578;5.456;2023-02-02T11:42:16;102372.16;;;7.85;95.73
58622;BME280;44389;51.578;5.456;2023-02-02T11:44:46;102366.78;;;7.82;96.19
58622;BME280;44389;51.578;5.456;2023-02-02T11:47:23;102360.69;;;7.80;95.92
58622;BME280;44389;51.578;5.456;2023-02-02T11:49:50;102361.47;;;7.79;96.63
58622;BME280;44389;51.578;5.456;2023-02-02T11:52:21;102364.63;;;7.75;96.80
58622;BME280;44389;51.578;5.456;2023-02-02T11:54:54;102361.97;;;7.73;96.95
58622;BME280;44389;51.578;5.456;2023-02-02T11:57:22;102365.22;;;7.71;97.11
58622;BME280;44389;51.578;5.456;2023-02-02T12:00:05;102358.59;;;7.74;97.69
58622;BME280;44389;51.578;5.456;2023-02-02T12:02:45;102359.28;;;7.72;97.10
58622;BME280;44389;51.578;5.456;2023-02-02T12:07:38;102349.69;;;7.69;97.79
58622;BME280;44389;51.578;5.456;2023-02-02T12:10:13;102355.53;;;7.67;97.83
58622;BME280;44389;51.578;5.456;2023-02-02T12:18:42;102357.81;;;7.62;98.39
58622;BME280;44389;51.578;5.456;2023-02-02T12:21:16;102360.28;;;7.61;98.82
58622;BME280;44389;51.578;5.456;2023-02-02T12:26:30;102351.31;;;7.67;98.75
58622;BME280;44389;51.578;5.456;2023-02-02T12:32:32;102346.06;;;7.79;98.58
58622;BME280;44389;51.578;5.456;2023-02-02T12:35:04;102346.66;;;7.88;98.46
58622;BME280;44389;51.578;5.456;2023-02-02T12:38:03;102345.28;;;7.94;98.63
58622;BME280;44389;51.578;5.456;2023-02-02T12:43:38;102342.34;;;8.01;99.61
58622;BME280;44389;51.578;5.456;2023-02-02T12:49:02;102342.34;;;8.01;99.54
58622;BME280;44389;51.578;5.456;2023-02-02T12:51:51;102346.34;;;8.11;99.44
58622;BME280;44389;51.578;5.456;2023-02-02T12:54:26;102341.13;;;8.22;99.32
58622;BME280;44389;51.578;5.456;2023-02-02T12:57:22;102335.22;;;8.10;100.00
58622;BME280;44389;51.578;5.456;2023-02-02T13:00:18;102332.66;;;8.10;99.62
58622;BME280;44389;51.578;5.456;2023-02-02T13:08:15;102327.31;;;7.94;99.87
58622;BME280;44389;51.578;5.456;2023-02-02T13:10:45;102329.88;;;7.94;100.00
58622;BME280;44389;51.578;5.456;2023-02-02T13:13:22;102339.97;;;7.90;99.89
58622;BME280;44389;51.578;5.456;2023-02-02T13:16:08;102340.66;;;7.88;100.00
58622;BME280;44389;51.578;5.456;2023-02-02T13:18:43;102341.13;;;7.82;100.00
58622;BME280;44389;51.578;5.456;2023-02-02T13:21:13;102338.97;;;7.75;100.00
58622;BME280;44389;51.578;5.456;2023-02-02T13:23:48;102343.69;;;7.69;100.00
58622;BME280;44389;51.578;5.456;2023-02-02T13:26:26;102343.19;;;7.61;100.00
58622;BME280;44389;51.578;5.456;2023-02-02T13:29:05;102342.88;;;7.56;100.00
58622;BME280;44389;51.578;5.456;2023-02-02T13:31:39;102349.78;;;7.57;100.00
58622;BME280;44389;51.578;5.456;2023-02-02T13:34:22;102347.31;;;7.59;100.00
58622;BME280;44389;51.578;5.456;2023-02-02T13:36:59;102337.97;;;7.60;100.00
58622;BME280;44389;51.578;5.456;2023-02-02T13:39:35;102337.47;;;7.65;100.00
58622;BME280;44389;51.578;5.456;2023-02-02T13:42:04;102342.00;;;7.56;100.00
58622;BME280;44389;51.578;5.456;2023-02-02T13:44:45;102332.63;;;7.56;100.00
58622;BME280;44389;51.578;5.456;2023-02-02T13:47:33;102332.94;;;7.61;100.00
58622;BME280;44389;51.578;5.456;2023-02-02T13:50:05;102325.91;;;7.58;100.00
58622;BME280;44389;51.578;5.456;2023-02-02T13:53:08;102325.53;;;7.66;100.00
58622;BME280;44389;51.578;5.456;2023-02-02T13:55:58;102335.19;;;7.56;100.00
58622;BME280;44389;51.578;5.456;2023-02-02T13:58:39;102337.56;;;7.53;100.00
58622;BME280;44389;51.578;5.456;2023-02-02T14:01:09;102342.28;;;7.47;100.00
58622;BME280;44389;51.578;5.456;2023-02-02T14:03:39;102339.63;;;7.46;100.00
58622;BME280;44389;51.578;5.456;2023-02-02T14:08:36;102332.69;;;7.45;100.00
58622;BME280;44389;51.578;5.456;2023-02-02T14:11:07;102330.91;;;7.44;100.00
58622;BME280;44389;51.578;5.456;2023-02-02T14:13:42;102335.94;;;7.42;100.00
58622;BME280;44389;51.578;5.456;2023-02-02T14:19:03;102349.28;;;7.36;100.00
58622;BME280;44389;51.578;5.456;2023-02-02T14:26:47;102353.97;;;7.30;100.00
58622;BME280;44389;51.578;5.456;2023-02-02T14:34:40;102363.19;;;7.15;100.00